sensor_id;sensor_type;location;lat;lon;timestamp;P1;durP1;ratioP1;P2;durP2;ratioP2
67776;SDS011;54576;52.020;5.536;2022-09-09T00:03:52;2.10;;;1.40;;
67776;SDS011;54576;52.020;5.536;2022-09-09T00:06:23;6.40;;;1.75;;
67776;SDS011;54576;52.020;5.536;2022-09-09T00:11:26;3.88;;;2.05;;
67776;SDS011;54576;52.020;5.536;2022-09-09T00:14:18;7.45;;;1.98;;
67776;SDS011;54576;52.020;5.536;2022-09-09T00:16:54;7.07;;;1.90;;
67776;SDS011;54576;52.020;5.536;2022-09-09T00:19:24;2.60;;;1.90;;
67776;SDS011;54576;52.020;5.536;2022-09-09T00:22:02;3.65;;;2.10;;
67776;SDS011;54576;52.020;5.536;2022-09-09T00:27:53;7.97;;;2.28;;
67776;SDS011;54576;52.020;5.536;2022-09-09T00:30:20;3.40;;;2.20;;
67776;SDS011;54576;52.020;5.536;2022-09-09T00:32:48;4.78;;;2.63;;
67776;SDS011;54576;52.020;5.536;2022-09-09T00:35:29;3.08;;;2.10;;
67776;SDS011;54576;52.020;5.536;2022-09-09T00:38:06;2.60;;;2.28;;
67776;SDS011;54576;52.020;5.536;2022-09-09T00:40:45;5.25;;;2.10;;
67776;SDS011;54576;52.020;5.536;2022-09-09T00:43:24;6.78;;;2.33;;
67776;SDS011;54576;52.020;5.536;2022-09-09T00:51:25;5.30;;;1.85;;
67776;SDS011;54576;52.020;5.536;2022-09-09T00:59:46;4.03;;;2.00;;
67776;SDS011;54576;52.020;5.536;2022-09-09T01:02:26;6.10;;;1.98;;
67776;SDS011;54576;52.020;5.536;2022-09-09T01:04:57;2.88;;;1.80;;
67776;SDS011;54576;52.020;5.536;2022-09-09T01:07:37;3.13;;;1.65;;
67776;SDS011;54576;52.020;5.536;2022-09-09T01:10:06;2.90;;;1.40;;
67776;SDS011;54576;52.020;5.536;2022-09-09T01:12:46;11.25;;;2.20;;
67776;SDS011;54576;52.020;5.536;2022-09-09T01:15:15;3.35;;;1.58;;
67776;SDS011;54576;52.020;5.536;2022-09-09T01:17:49;5.38;;;2.20;;
67776;SDS011;54576;52.020;5.536;2022-09-09T01:20:21;2.05;;;1.52;;
67776;SDS011;54576;52.020;5.536;2022-09-09T01:28:39;7.32;;;2.00;;
67776;SDS011;54576;52.020;5.536;2022-09-09T01:31:07;2.90;;;1.67;;
67776;SDS011;54576;52.020;5.536;2022-09-09T01:36:04;3.15;;;1.73;;
67776;SDS011;54576;52.020;5.536;2022-09-09T01:38:35;2.45;;;1.70;;
67776;SDS011;54576;52.020;5.536;2022-09-09T01:41:01;7.60;;;1.73;;
67776;SDS011;54576;52.020;5.536;2022-09-09T01:43:27;5.95;;;1.98;;
67776;SDS011;54576;52.020;5.536;2022-09-09T01:45:54;3.05;;;1.90;;
67776;SDS011;54576;52.020;5.536;2022-09-09T01:48:23;1.88;;;1.63;;
67776;SDS011;54576;52.020;5.536;2022-09-09T01:50:51;5.18;;;1.73;;
67776;SDS011;54576;52.020;5.536;2022-09-09T01:53:18;3.03;;;1.80;;
67776;SDS011;54576;52.020;5.536;2022-09-09T02:04:03;8.77;;;2.33;;
67776;SDS011;54576;52.020;5.536;2022-09-09T02:06:53;2.70;;;1.65;;
67776;SDS011;54576;52.020;5.536;2022-09-09T02:09:22;3.67;;;1.95;;
67776;SDS011;54576;52.020;5.536;2022-09-09T02:11:52;7.00;;;2.10;;
67776;SDS011;54576;52.020;5.536;2022-09-09T02:14:32;3.20;;;1.70;;
67776;SDS011;54576;52.020;5.536;2022-09-09T02:17:09;3.50;;;1.90;;
67776;SDS011;54576;52.020;5.536;2022-09-09T02:19:37;9.88;;;1.85;;
67776;SDS011;54576;52.020;5.536;2022-09-09T02:22:10;4.13;;;1.65;;
67776;SDS011;54576;52.020;5.536;2022-09-09T02:24:36;5.25;;;1.65;;
67776;SDS011;54576;52.020;5.536;2022-09-09T02:27:04;2.85;;;1.90;;
67776;SDS011;54576;52.020;5.536;2022-09-09T02:29:34;3.50;;;1.98;;
67776;SDS011;54576;52.020;5.536;2022-09-09T02:32:14;2.38;;;1.58;;
67776;SDS011;54576;52.020;5.536;2022-09-09T02:34:47;2.15;;;2.00;;
67776;SDS011;54576;52.020;5.536;2022-09-09T02:37:19;3.63;;;1.83;;
67776;SDS011;54576;52.020;5.536;2022-09-09T02:39:48;5.97;;;2.38;;
67776;SDS011;54576;52.020;5.536;2022-09-09T02:42:14;8.95;;;2.28;;
67776;SDS011;54576;52.020;5.536;2022-09-09T02:44:40;2.95;;;1.58;;
67776;SDS011;54576;52.020;5.536;2022-09-09T02:47:19;5.90;;;1.90;;
67776;SDS011;54576;52.020;5.536;2022-09-09T02:49:59;2.05;;;1.95;;
67776;SDS011;54576;52.020;5.536;2022-09-09T02:52:43;7.35;;;2.13;;
67776;SDS011;54576;52.020;5.536;2022-09-09T02:58:01;11.43;;;1.90;;
67776;SDS011;54576;52.020;5.536;2022-09-09T03:00:31;2.90;;;2.30;;
67776;SDS011;54576;52.020;5.536;2022-09-09T03:02:57;5.18;;;2.17;;
67776;SDS011;54576;52.020;5.536;2022-09-09T03:05:23;2.45;;;1.83;;
67776;SDS011;54576;52.020;5.536;2022-09-09T03:07:49;9.65;;;3.40;;
67776;SDS011;54576;52.020;5.536;2022-09-09T03:10:15;5.55;;;2.42;;
67776;SDS011;54576;52.020;5.536;2022-09-09T03:12:42;4.85;;;1.83;;
67776;SDS011;54576;52.020;5.536;2022-09-09T03:15:07;4.15;;;2.00;;
67776;SDS011;54576;52.020;5.536;2022-09-09T03:17:34;10.77;;;2.03;;
67776;SDS011;54576;52.020;5.536;2022-09-09T03:20:01;5.97;;;1.80;;
67776;SDS011;54576;52.020;5.536;2022-09-09T03:22:28;3.53;;;1.98;;
67776;SDS011;54576;52.020;5.536;2022-09-09T03:24:53;8.25;;;2.20;;
67776;SDS011;54576;52.020;5.536;2022-09-09T03:27:19;6.18;;;2.50;;
67776;SDS011;54576;52.020;5.536;2022-09-09T03:29:45;5.18;;;2.45;;
67776;SDS011;54576;52.020;5.536;2022-09-09T03:32:11;5.25;;;2.20;;
67776;SDS011;54576;52.020;5.536;2022-09-09T03:34:37;5.80;;;2.20;;
67776;SDS011;54576;52.020;5.536;2022-09-09T03:37:05;6.88;;;1.90;;
67776;SDS011;54576;52.020;5.536;2022-09-09T03:39:31;6.57;;;2.22;;
67776;SDS011;54576;52.020;5.536;2022-09-09T03:41:57;8.43;;;2.20;;
67776;SDS011;54576;52.020;5.536;2022-09-09T03:44:23;5.57;;;1.95;;
67776;SDS011;54576;52.020;5.536;2022-09-09T03:46:48;5.50;;;3.03;;
67776;SDS011;54576;52.020;5.536;2022-09-09T03:49:14;2.78;;;2.15;;
67776;SDS011;54576;52.020;5.536;2022-09-09T03:51:40;5.85;;;2.25;;
67776;SDS011;54576;52.020;5.536;2022-09-09T03:54:06;3.65;;;1.55;;
67776;SDS011;54576;52.020;5.536;2022-09-09T03:56:35;9.00;;;2.72;;
67776;SDS011;54576;52.020;5.536;2022-09-09T03:59:01;4.35;;;2.00;;
67776;SDS011;54576;52.020;5.536;2022-09-09T04:01:27;4.07;;;1.90;;
67776;SDS011;54576;52.020;5.536;2022-09-09T04:03:53;12.27;;;2.30;;
67776;SDS011;54576;52.020;5.536;2022-09-09T04:06:20;4.57;;;2.40;;
67776;SDS011;54576;52.020;5.536;2022-09-09T04:08:46;2.92;;;2.10;;
67776;SDS011;54576;52.020;5.536;2022-09-09T04:11:13;5.80;;;2.30;;
67776;SDS011;54576;52.020;5.536;2022-09-09T04:13:40;4.05;;;2.33;;
67776;SDS011;54576;52.020;5.536;2022-09-09T04:16:06;6.30;;;2.60;;
67776;SDS011;54576;52.020;5.536;2022-09-09T04:18:35;4.78;;;1.98;;
67776;SDS011;54576;52.020;5.536;2022-09-09T04:21:00;6.05;;;2.20;;
67776;SDS011;54576;52.020;5.536;2022-09-09T04:23:27;7.75;;;2.40;;
67776;SDS011;54576;52.020;5.536;2022-09-09T04:25:57;4.32;;;2.30;;
67776;SDS011;54576;52.020;5.536;2022-09-09T04:28:24;8.95;;;3.05;;
67776;SDS011;54576;52.020;5.536;2022-09-09T04:30:52;4.73;;;2.80;;
67776;SDS011;54576;52.020;5.536;2022-09-09T04:33:18;5.78;;;2.22;;
67776;SDS011;54576;52.020;5.536;2022-09-09T04:35:48;8.38;;;2.45;;
67776;SDS011;54576;52.020;5.536;2022-09-09T04:38:15;5.97;;;2.28;;
67776;SDS011;54576;52.020;5.536;2022-09-09T04:40:48;7.50;;;2.40;;
67776;SDS011;54576;52.020;5.536;2022-09-09T04:43:15;13.18;;;2.30;;
67776;SDS011;54576;52.020;5.536;2022-09-09T04:45:41;4.85;;;2.30;;
67776;SDS011;54576;52.020;5.536;2022-09-09T04:48:07;5.95;;;2.45;;
67776;SDS011;54576;52.020;5.536;2022-09-09T04:50:34;3.83;;;2.28;;
67776;SDS011;54576;52.020;5.536;2022-09-09T04:53:00;6.47;;;2.13;;
67776;SDS011;54576;52.020;5.536;2022-09-09T04:55:27;10.48;;;2.30;;
67776;SDS011;54576;52.020;5.536;2022-09-09T04:57:52;4.53;;;2.55;;
67776;SDS011;54576;52.020;5.536;2022-09-09T05:00:18;4.70;;;2.10;;
67776;SDS011;54576;52.020;5.536;2022-09-09T05:02:44;11.48;;;2.17;;
67776;SDS011;54576;52.020;5.536;2022-09-09T21:42:39;176.63;;;83.88;;
67776;SDS011;54576;52.020;5.536;2022-09-09T21:45:08;166.38;;;76.57;;
67776;SDS011;54576;52.020;5.536;2022-09-09T21:47:37;122.60;;;62.92;;
67776;SDS011;54576;52.020;5.536;2022-09-09T21:50:10;114.82;;;63.05;;
67776;SDS011;54576;52.020;5.536;2022-09-09T21:52:38;93.33;;;53.03;;
67776;SDS011;54576;52.020;5.536;2022-09-09T21:55:04;112.78;;;55.88;;
67776;SDS011;54576;52.020;5.536;2022-09-09T21:57:34;89.00;;;50.25;;
67776;SDS011;54576;52.020;5.536;2022-09-09T22:00:04;72.82;;;44.88;;
67776;SDS011;54576;52.020;5.536;2022-09-09T22:05:00;67.18;;;40.00;;
67776;SDS011;54576;52.020;5.536;2022-09-09T22:07:28;74.97;;;43.58;;
67776;SDS011;54576;52.020;5.536;2022-09-09T22:09:59;72.07;;;42.90;;
67776;SDS011;54576;52.020;5.536;2022-09-09T22:12:26;70.72;;;39.30;;
67776;SDS011;54576;52.020;5.536;2022-09-09T22:15:18;64.10;;;38.95;;
67776;SDS011;54576;52.020;5.536;2022-09-09T22:17:46;55.50;;;37.70;;
67776;SDS011;54576;52.020;5.536;2022-09-09T22:20:15;65.85;;;39.63;;
67776;SDS011;54576;52.020;5.536;2022-09-09T22:22:41;80.30;;;43.97;;
67776;SDS011;54576;52.020;5.536;2022-09-09T22:25:07;62.35;;;38.08;;
67776;SDS011;54576;52.020;5.536;2022-09-09T22:27:33;50.60;;;29.60;;
67776;SDS011;54576;52.020;5.536;2022-09-09T22:30:00;40.40;;;24.83;;
67776;SDS011;54576;52.020;5.536;2022-09-09T22:32:26;40.83;;;23.95;;
67776;SDS011;54576;52.020;5.536;2022-09-09T22:34:52;51.83;;;29.33;;
67776;SDS011;54576;52.020;5.536;2022-09-09T22:37:18;43.65;;;23.48;;
67776;SDS011;54576;52.020;5.536;2022-09-09T22:39:44;46.30;;;21.80;;
67776;SDS011;54576;52.020;5.536;2022-09-09T22:42:10;42.05;;;23.35;;
67776;SDS011;54576;52.020;5.536;2022-09-09T22:44:36;46.08;;;20.30;;
67776;SDS011;54576;52.020;5.536;2022-09-09T22:47:02;33.67;;;18.33;;
67776;SDS011;54576;52.020;5.536;2022-09-09T22:49:28;33.85;;;17.23;;
67776;SDS011;54576;52.020;5.536;2022-09-09T22:51:55;38.97;;;20.38;;
67776;SDS011;54576;52.020;5.536;2022-09-09T22:54:21;37.28;;;17.83;;
67776;SDS011;54576;52.020;5.536;2022-09-09T22:56:50;34.45;;;17.85;;
67776;SDS011;54576;52.020;5.536;2022-09-09T22:59:17;60.13;;;31.13;;
67776;SDS011;54576;52.020;5.536;2022-09-09T23:01:43;41.72;;;20.80;;
67776;SDS011;54576;52.020;5.536;2022-09-09T23:04:09;56.83;;;26.50;;
67776;SDS011;54576;52.020;5.536;2022-09-09T23:06:38;37.15;;;18.75;;
67776;SDS011;54576;52.020;5.536;2022-09-09T23:09:08;30.85;;;15.98;;
67776;SDS011;54576;52.020;5.536;2022-09-09T23:11:35;31.60;;;16.35;;
67776;SDS011;54576;52.020;5.536;2022-09-09T23:14:02;27.50;;;13.80;;
67776;SDS011;54576;52.020;5.536;2022-09-09T23:16:32;52.35;;;24.45;;
67776;SDS011;54576;52.020;5.536;2022-09-09T23:18:59;27.05;;;14.60;;
67776;SDS011;54576;52.020;5.536;2022-09-09T23:21:26;25.38;;;11.20;;
67776;SDS011;54576;52.020;5.536;2022-09-09T23:23:53;35.58;;;16.25;;
67776;SDS011;54576;52.020;5.536;2022-09-09T23:26:19;24.90;;;12.43;;
67776;SDS011;54576;52.020;5.536;2022-09-09T23:28:47;27.13;;;13.35;;
67776;SDS011;54576;52.020;5.536;2022-09-09T23:31:15;24.95;;;12.05;;
67776;SDS011;54576;52.020;5.536;2022-09-09T23:33:42;40.50;;;13.93;;
67776;SDS011;54576;52.020;5.536;2022-09-09T23:36:13;23.35;;;11.93;;
67776;SDS011;54576;52.020;5.536;2022-09-09T23:38:39;19.55;;;10.07;;
67776;SDS011;54576;52.020;5.536;2022-09-09T23:41:08;31.15;;;13.48;;
67776;SDS011;54576;52.020;5.536;2022-09-09T23:43:35;21.60;;;10.52;;
67776;SDS011;54576;52.020;5.536;2022-09-09T23:46:07;27.13;;;10.23;;
67776;SDS011;54576;52.020;5.536;2022-09-09T23:48:33;19.58;;;9.18;;
67776;SDS011;54576;52.020;5.536;2022-09-09T23:51:01;32.15;;;12.45;;
67776;SDS011;54576;52.020;5.536;2022-09-09T23:53:27;30.35;;;13.05;;
67776;SDS011;54576;52.020;5.536;2022-09-09T23:55:53;19.52;;;8.48;;
67776;SDS011;54576;52.020;5.536;2022-09-09T23:58:20;27.80;;;10.52;;
